Time,TemperatureF,DewpointF,PressureIn,WindDirection,WindDirectionDegrees,WindSpeedMPH,WindSpeedGustMPH,Humidity,HourlyPrecipIn,Conditions,Clouds,dailyrainin,SoftwareType,DateUTC
2013-11-03 00:00:00,49.9,47.4,29.74,West,274,0.0,1.0,91,0.00,,---,0.00,VWS V14.01,2013-11-03 04:00:00,
2013-11-03 00:05:00,49.8,47.0,29.74,North,6,1.0,2.0,90,0.00,,---,0.00,VWS V14.01,2013-11-03 04:05:00,
2013-11-03 00:10:00,49.7,46.9,29.73,North,354,0.0,2.0,90,0.00,,---,0.00,VWS V14.01,2013-11-03 04:10:00,
2013-11-03 00:15:00,49.7,46.9,29.73,North,355,0.0,2.0,90,0.00,,---,0.00,VWS V14.01,2013-11-03 04:15:00,
2013-11-03 00:20:00,49.6,46.8,29.74,North,354,0.0,1.0,90,0.00,,---,0.00,VWS V14.01,2013-11-03 04:20:00,
2013-11-03 00:25:00,49.5,46.7,29.74,North,11,0.0,1.0,90,0.00,,---,0.00,VWS V14.01,2013-11-03 04:25:00,
2013-11-03 00:30:00,49.4,46.6,29.74,North,11,0.0,1.0,90,0.00,,---,0.00,VWS V14.01,2013-11-03 04:30:00,
2013-11-03 00:35:00,49.2,46.4,29.74,North,11,0.0,0.0,90,0.00,,---,0.00,VWS V14.01,2013-11-03 04:35:00,
2013-11-03 00:45:00,48.9,46.1,29.75,North,10,0.0,0.0,90,0.00,,---,0.00,VWS V14.01,2013-11-03 04:45:00,
2013-11-03 00:50:00,48.8,46.0,29.75,WNW,283,0.0,2.0,90,0.00,,---,0.00,VWS V14.01,2013-11-03 04:50:00,
2013-11-03 00:55:00,48.8,46.0,29.75,SE,136,0.0,2.0,90,0.00,,---,0.00,VWS V14.01,2013-11-03 04:55:00,
2013-11-03 01:00:00,48.7,45.9,29.75,SE,136,0.0,1.0,90,0.00,,---,0.00,VWS V14.01,2013-11-03 05:00:00,
2013-11-03 01:05:00,48.6,45.8,29.76,NE,51,0.0,3.0,90,0.00,,---,0.00,VWS V14.01,2013-11-03 05:05:00,
2013-11-03 01:10:00,48.6,45.8,29.76,WNW,299,0.0,3.0,90,0.00,,---,0.00,VWS V14.01,2013-11-03 05:10:00,
2013-11-03 01:15:00,48.6,45.8,29.77,WNW,299,0.0,0.0,90,0.00,,---,0.00,VWS V14.01,2013-11-03 05:15:00,
2013-11-03 01:20:00,48.5,45.7,29.77,North,11,0.0,4.0,90,0.00,,---,0.00,VWS V14.01,2013-11-03 05:20:00,
2013-11-03 01:25:00,48.5,45.7,29.77,NNW,344,0.0,4.0,90,0.00,,---,0.00,VWS V14.01,2013-11-03 05:25:00,
2013-11-03 01:30:00,48.5,45.4,29.78,NNE,22,0.0,1.0,89,0.00,,---,0.00,VWS V14.01,2013-11-03 05:30:00,
2013-11-03 01:35:00,48.4,45.3,29.78,West,262,0.0,4.0,89,0.00,,---,0.00,VWS V14.01,2013-11-03 05:35:00,
2013-11-03 01:40:00,48.4,45.3,29.78,NNW,343,1.0,3.0,89,0.00,,---,0.00,VWS V14.01,2013-11-03 05:40:00,
2013-11-03 01:45:00,48.4,45.3,29.78,East,97,1.0,6.0,89,0.00,,---,0.00,VWS V14.01,2013-11-03 05:45:00,
2013-11-03 01:50:00,48.3,45.2,29.79,ENE,63,0.0,2.0,89,0.00,,---,0.00,VWS V14.01,2013-11-03 05:50:00,
2013-11-03 01:55:00,48.2,45.1,29.79,ESE,114,0.0,2.0,89,0.00,,---,0.00,VWS V14.01,2013-11-03 05:55:00,
2013-11-03 01:00:00,46.4,41.5,29.82,NNE,19,2.0,10.0,83,0.00,,---,0.00,VWS V14.01,2013-11-03 06:00:00,
2013-11-03 02:05:00,46.3,41.7,29.83,North,350,2.0,4.0,84,0.00,,---,0.00,VWS V14.01,2013-11-03 07:05:00,
2013-11-03 02:10:00,46.1,41.2,29.83,NNE,30,0.0,3.0,83,0.00,,---,0.00,VWS V14.01,2013-11-03 07:10:00,
2013-11-03 02:15:00,46.0,41.1,29.83,NW,312,0.0,4.0,83,0.00,,---,0.00,VWS V14.01,2013-11-03 07:15:00,
2013-11-03 02:20:00,45.7,40.2,29.83,NW,307,1.0,6.0,81,0.00,,---,0.00,VWS V14.01,2013-11-03 07:20:00,
2013-11-03 02:25:00,45.2,39.1,29.83,SW,223,3.0,11.0,79,0.00,,---,0.00,VWS V14.01,2013-11-03 07:25:00,
2013-11-03 02:30:00,44.7,38.6,29.83,NE,53,2.0,4.0,79,0.00,,---,0.00,VWS V14.01,2013-11-03 07:30:00,
2013-11-03 02:35:00,44.3,38.2,29.83,ESE,121,4.0,5.0,79,0.00,,---,0.00,VWS V14.01,2013-11-03 07:35:00,
2013-11-03 02:40:00,44.0,37.9,29.85,NE,46,1.0,7.0,79,0.00,,---,0.00,VWS V14.01,2013-11-03 07:40:00,
2013-11-03 02:45:00,43.9,37.8,29.85,NE,35,2.0,4.0,79,0.00,,---,0.00,VWS V14.01,2013-11-03 07:45:00,
2013-11-03 02:50:00,43.7,37.3,29.85,WNW,298,5.0,7.0,78,0.00,,---,0.00,VWS V14.01,2013-11-03 07:50:00,
2013-11-03 02:55:00,43.5,37.1,29.85,SW,221,1.0,6.0,78,0.00,,---,0.00,VWS V14.01,2013-11-03 07:55:00,
2013-11-03 03:00:00,43.4,37.0,29.86,North,354,0.0,7.0,78,0.00,,---,0.00,VWS V14.01,2013-11-03 08:00:00,
2013-11-03 03:05:00,43.3,37.2,29.86,North,356,2.0,6.0,79,0.00,,---,0.00,VWS V14.01,2013-11-03 08:05:00,
2013-11-03 03:10:00,43.2,36.8,29.87,ESE,104,0.0,5.0,78,0.00,,---,0.00,VWS V14.01,2013-11-03 08:10:00,
2013-11-03 03:15:00,43.1,37.0,29.87,NE,40,0.0,3.0,79,0.00,,---,0.00,VWS V14.01,2013-11-03 08:15:00,
2013-11-03 03:20:00,43.1,37.0,29.87,ENE,63,1.0,2.0,79,0.00,,---,0.00,VWS V14.01,2013-11-03 08:20:00,
2013-11-03 03:25:00,43.1,36.7,29.87,NNE,25,0.0,6.0,78,0.00,,---,0.00,VWS V14.01,2013-11-03 08:25:00,
2013-11-03 03:30:00,43.0,36.9,29.87,West,281,2.0,3.0,79,0.00,,---,0.00,VWS V14.01,2013-11-03 08:30:00,
2013-11-03 03:35:00,43.0,36.9,29.88,NNE,30,1.0,5.0,79,0.00,,---,0.00,VWS V14.01,2013-11-03 08:35:00,
2013-11-03 03:40:00,42.9,36.8,29.88,NNW,339,0.0,5.0,79,0.00,,---,0.00,VWS V14.01,2013-11-03 08:40:00,
2013-11-03 03:45:00,42.9,36.8,29.89,North,350,2.0,4.0,79,0.00,,---,0.00,VWS V14.01,2013-11-03 08:45:00,
2013-11-03 03:50:00,42.8,36.8,29.89,NNW,327,0.0,4.0,79,0.00,,---,0.00,VWS V14.01,2013-11-03 08:50:00,
2013-11-03 03:55:00,42.8,36.8,29.89,NE,45,0.0,5.0,79,0.00,,---,0.00,VWS V14.01,2013-11-03 08:55:00,
2013-11-03 04:00:00,42.8,37.1,29.89,NE,48,0.0,4.0,80,0.00,,---,0.00,VWS V14.01,2013-11-03 09:00:00,
2013-11-03 04:05:00,42.7,36.7,29.90,ENE,69,0.0,3.0,79,0.00,,---,0.00,VWS V14.01,2013-11-03 09:05:00,
2013-11-03 04:10:00,42.7,37.0,29.90,NW,317,0.0,6.0,80,0.00,,---,0.00,VWS V14.01,2013-11-03 09:10:00,
2013-11-03 04:15:00,42.6,36.9,29.90,NNW,329,0.0,3.0,80,0.00,,---,0.00,VWS V14.01,2013-11-03 09:15:00,
2013-11-03 04:20:00,42.5,37.1,29.90,West,270,0.0,5.0,81,0.00,,---,0.00,VWS V14.01,2013-11-03 09:20:00,
2013-11-03 04:25:00,42.4,36.7,29.90,WNW,302,0.0,7.0,80,0.00,,---,0.00,VWS V14.01,2013-11-03 09:25:00,
2013-11-03 04:30:00,42.3,36.6,29.91,North,354,0.0,8.0,80,0.00,,---,0.00,VWS V14.01,2013-11-03 09:30:00,
2013-11-03 04:35:00,42.3,36.6,29.91,SW,219,3.0,5.0,80,0.00,,---,0.00,VWS V14.01,2013-11-03 09:35:00,
2013-11-03 04:40:00,42.3,36.9,29.92,SSE,154,2.0,5.0,81,0.00,,---,0.00,VWS V14.01,2013-11-03 09:40:00,
2013-11-03 04:45:00,42.3,36.9,29.92,ENE,59,0.0,5.0,81,0.00,,---,0.00,VWS V14.01,2013-11-03 09:45:00,
2013-11-03 04:50:00,42.2,36.8,29.93,NNE,19,0.0,11.0,81,0.00,,---,0.00,VWS V14.01,2013-11-03 09:50:00,
2013-11-03 04:55:00,42.2,36.8,29.93,ENE,58,1.0,2.0,81,0.00,,---,0.00,VWS V14.01,2013-11-03 09:55:00,
2013-11-03 05:05:00,42.1,36.7,29.93,NE,44,1.0,9.0,81,0.00,,---,0.00,VWS V14.01,2013-11-03 10:05:00,
2013-11-03 05:10:00,41.9,36.5,29.94,NE,56,2.0,10.0,81,0.00,,---,0.00,VWS V14.01,2013-11-03 10:10:00,
2013-11-03 05:15:00,41.8,36.7,29.94,WNW,290,3.0,5.0,82,0.00,,---,0.00,VWS V14.01,2013-11-03 10:15:00,
2013-11-03 05:20:00,41.7,36.9,29.94,NW,306,0.0,5.0,83,0.00,,---,0.00,VWS V14.01,2013-11-03 10:20:00,
2013-11-03 05:25:00,41.6,36.8,29.95,WSW,244,0.0,10.0,83,0.00,,---,0.00,VWS V14.01,2013-11-03 10:25:00,
2013-11-03 05:30:00,41.5,37.0,29.95,North,6,2.0,5.0,84,0.00,,---,0.00,VWS V14.01,2013-11-03 10:30:00,
2013-11-03 05:35:00,41.4,36.6,29.95,NNE,18,0.0,3.0,83,0.00,,---,0.00,VWS V14.01,2013-11-03 10:35:00,
2013-11-03 05:40:00,41.4,36.9,29.96,NE,40,0.0,4.0,84,0.00,,---,0.00,VWS V14.01,2013-11-03 10:40:00,
2013-11-03 05:45:00,41.4,36.9,29.96,NNE,12,0.0,5.0,84,0.00,,---,0.00,VWS V14.01,2013-11-03 10:45:00,
2013-11-03 05:50:00,41.4,36.9,29.97,North,353,2.0,3.0,84,0.00,,---,0.00,VWS V14.01,2013-11-03 10:50:00,
2013-11-03 05:55:00,41.3,37.1,29.97,NNW,348,0.0,5.0,85,0.00,,---,0.00,VWS V14.01,2013-11-03 10:55:00,
2013-11-03 06:00:00,41.1,37.2,29.97,North,1,0.0,6.0,86,0.00,,---,0.00,VWS V14.01,2013-11-03 11:00:00,
2013-11-03 06:05:00,41.0,37.1,29.98,WSW,239,0.0,4.0,86,0.00,,---,0.00,VWS V14.01,2013-11-03 11:05:00,
2013-11-03 06:10:00,40.9,37.3,29.98,NNE,17,4.0,5.0,87,0.00,,---,0.00,VWS V14.01,2013-11-03 11:10:00,
2013-11-03 06:15:00,40.7,37.1,29.98,NNE,30,3.0,6.0,87,0.00,,---,0.00,VWS V14.01,2013-11-03 11:15:00,
2013-11-03 06:20:00,40.7,37.1,29.98,NNW,331,0.0,5.0,87,0.00,,---,0.00,VWS V14.01,2013-11-03 11:20:00,
2013-11-03 06:25:00,40.6,37.3,29.98,ESE,117,0.0,4.0,88,0.00,,---,0.00,VWS V14.01,2013-11-03 11:25:00,
2013-11-03 06:30:00,40.6,37.3,29.99,SSE,151,0.0,5.0,88,0.00,,---,0.00,VWS V14.01,2013-11-03 11:30:00,
2013-11-03 06:35:00,40.5,37.2,29.99,NNE,16,0.0,5.0,88,0.00,,---,0.00,VWS V14.01,2013-11-03 11:35:00,
2013-11-03 06:40:00,40.5,37.2,29.99,NNE,30,2.0,5.0,88,0.00,,---,0.00,VWS V14.01,2013-11-03 11:40:00,
2013-11-03 06:45:00,40.4,37.1,30.00,West,260,1.0,6.0,88,0.00,,---,0.00,VWS V14.01,2013-11-03 11:45:00,
2013-11-03 06:50:00,40.3,36.8,30.00,NNE,20,2.0,6.0,87,0.00,,---,0.00,VWS V14.01,2013-11-03 11:50:00,
2013-11-03 06:55:00,40.2,36.9,30.00,NNW,338,1.0,3.0,88,0.00,,---,0.00,VWS V14.01,2013-11-03 11:55:00,
2013-11-03 07:00:00,40.1,36.8,30.01,NNE,30,2.0,5.0,88,0.00,,---,0.00,VWS V14.01,2013-11-03 12:00:00,
2013-11-03 07:05:00,39.9,36.6,30.01,NE,40,0.0,5.0,88,0.00,,---,0.00,VWS V14.01,2013-11-03 12:05:00,
2013-11-03 07:10:00,39.8,36.2,30.02,NNE,30,1.0,7.0,87,0.00,,---,0.00,VWS V14.01,2013-11-03 12:10:00,
2013-11-03 07:15:00,39.7,36.2,30.02,West,277,0.0,4.0,87,0.00,,---,0.00,VWS V14.01,2013-11-03 12:15:00,
2013-11-03 07:20:00,39.7,36.4,30.03,NNW,342,0.0,1.0,88,0.00,,---,0.00,VWS V14.01,2013-11-03 12:20:00,
2013-11-03 07:25:00,39.6,36.1,30.03,NW,307,1.0,5.0,87,0.00,,---,0.00,VWS V14.01,2013-11-03 12:25:00,
2013-11-03 07:30:00,39.6,35.5,30.03,ENE,76,0.0,4.0,85,0.00,,---,0.00,VWS V14.01,2013-11-03 12:30:00,
2013-11-03 07:35:00,39.7,35.6,30.04,North,10,0.0,6.0,85,0.00,,---,0.00,VWS V14.01,2013-11-03 12:35:00,
2013-11-03 07:40:00,39.7,35.3,30.04,NNE,30,0.0,4.0,84,0.00,,---,0.00,VWS V14.01,2013-11-03 12:40:00,
2013-11-03 07:45:00,39.7,35.0,30.05,NNE,17,2.0,4.0,83,0.00,,---,0.00,VWS V14.01,2013-11-03 12:45:00,
2013-11-03 07:50:00,39.7,35.0,30.05,WNW,296,0.0,5.0,83,0.00,,---,0.00,VWS V14.01,2013-11-03 12:50:00,
2013-11-03 07:55:00,39.7,35.0,30.05,North,8,1.0,7.0,83,0.00,,---,0.00,VWS V14.01,2013-11-03 12:55:00,
2013-11-03 08:00:00,39.7,34.7,30.06,NE,40,1.0,6.0,82,0.00,,---,0.00,VWS V14.01,2013-11-03 13:00:00,
2013-11-03 08:05:00,39.8,34.8,30.06,NNE,30,1.0,6.0,82,0.00,,---,0.00,VWS V14.01,2013-11-03 13:05:00,
2013-11-03 08:10:00,39.9,34.5,30.06,NNE,23,0.0,5.0,81,0.00,,---,0.00,VWS V14.01,2013-11-03 13:10:00,
2013-11-03 08:15:00,40.0,34.3,30.06,NNE,15,0.0,2.0,80,0.00,,---,0.00,VWS V14.01,2013-11-03 13:15:00,
2013-11-03 08:20:00,40.0,34.3,30.07,SE,138,0.0,3.0,80,0.00,,---,0.00,VWS V14.01,2013-11-03 13:20:00,
2013-11-03 08:25:00,40.0,34.0,30.07,NE,40,0.0,5.0,79,0.00,,---,0.00,VWS V14.01,2013-11-03 13:25:00,
2013-11-03 08:30:00,39.9,33.6,30.07,WNW,287,3.0,4.0,78,0.00,,---,0.00,VWS V14.01,2013-11-03 13:30:00,
2013-11-03 08:35:00,39.6,33.6,30.08,NE,46,0.0,6.0,79,0.00,,---,0.00,VWS V14.01,2013-11-03 13:35:00,
2013-11-03 08:40:00,39.4,33.8,30.08,NW,317,0.0,5.0,80,0.00,,---,0.00,VWS V14.01,2013-11-03 13:40:00,
2013-11-03 08:45:00,39.1,33.8,30.08,NE,45,3.0,6.0,81,0.00,,---,0.00,VWS V14.01,2013-11-03 13:45:00,
2013-11-03 08:55:00,38.5,33.8,30.09,West,279,1.0,5.0,83,0.00,,---,0.00,VWS V14.01,2013-11-03 13:55:00,
2013-11-03 09:00:00,38.3,34.2,30.09,NNW,327,0.0,2.0,85,0.00,,---,0.00,VWS V14.01,2013-11-03 14:00:00,
2013-11-03 09:05:00,38.2,34.1,30.09,West,273,0.0,3.0,85,0.00,,---,0.00,VWS V14.01,2013-11-03 14:05:00,
2013-11-03 09:10:00,38.0,34.2,30.09,ENE,57,0.0,4.0,86,0.00,,---,0.00,VWS V14.01,2013-11-03 14:10:00,
2013-11-03 09:15:00,37.9,34.4,30.09,North,352,1.0,3.0,87,0.00,,---,0.00,VWS V14.01,2013-11-03 14:15:00,
2013-11-03 09:20:00,37.9,34.4,30.09,NE,53,2.0,5.0,87,0.00,,---,0.00,VWS V14.01,2013-11-03 14:20:00,
2013-11-03 09:25:00,37.9,34.4,30.09,NNE,24,1.0,4.0,87,0.00,,---,0.00,VWS V14.01,2013-11-03 14:25:00,
2013-11-03 09:30:00,38.0,34.5,30.10,NE,40,6.0,6.0,87,0.00,,---,0.00,VWS V14.01,2013-11-03 14:30:00,
2013-11-03 09:35:00,37.9,33.8,30.10,East,86,0.0,7.0,85,0.00,,---,0.00,VWS V14.01,2013-11-03 14:35:00,
2013-11-03 09:40:00,38.0,34.2,30.10,NW,314,0.0,2.0,86,0.00,,---,0.00,VWS V14.01,2013-11-03 14:40:00,
2013-11-03 09:45:00,38.2,34.7,30.10,SE,138,0.0,2.0,87,0.00,,---,0.00,VWS V14.01,2013-11-03 14:45:00,
2013-11-03 09:50:00,38.3,34.5,30.10,NNW,348,0.0,4.0,86,0.00,,---,0.00,VWS V14.01,2013-11-03 14:50:00,
2013-11-03 09:55:00,38.5,34.7,30.10,North,358,0.0,2.0,86,0.00,,---,0.00,VWS V14.01,2013-11-03 14:55:00,
2013-11-03 10:00:00,38.8,35.3,30.11,NNE,30,2.0,4.0,87,0.00,,---,0.00,VWS V14.01,2013-11-03 15:00:00,
2013-11-03 10:05:00,39.0,34.9,30.11,WNW,300,0.0,2.0,85,0.00,,---,0.00,VWS V14.01,2013-11-03 15:05:00,
2013-11-03 10:10:00,39.0,34.6,30.11,NE,53,3.0,5.0,84,0.00,,---,0.00,VWS V14.01,2013-11-03 15:10:00,
2013-11-03 10:15:00,38.9,34.2,30.12,NNE,30,2.0,6.0,83,0.00,,---,0.00,VWS V14.01,2013-11-03 15:15:00,
2013-11-03 10:20:00,38.8,34.4,30.12,WNW,286,0.0,4.0,84,0.00,,---,0.00,VWS V14.01,2013-11-03 15:20:00,
2013-11-03 10:25:00,38.8,34.1,30.13,NW,313,3.0,5.0,83,0.00,,---,0.00,VWS V14.01,2013-11-03 15:25:00,
2013-11-03 10:30:00,38.9,34.5,30.13,NE,46,0.0,3.0,84,0.00,,---,0.00,VWS V14.01,2013-11-03 15:30:00,
2013-11-03 10:35:00,38.9,34.2,30.13,NNE,20,0.0,6.0,83,0.00,,---,0.00,VWS V14.01,2013-11-03 15:35:00,
2013-11-03 10:40:00,38.9,33.9,30.13,NW,321,0.0,5.0,82,0.00,,---,0.00,VWS V14.01,2013-11-03 15:40:00,
2013-11-03 10:45:00,39.0,33.7,30.13,NNE,30,0.0,6.0,81,0.00,,---,0.00,VWS V14.01,2013-11-03 15:45:00,
2013-11-03 10:50:00,39.1,33.5,30.13,North,4,1.0,7.0,80,0.00,,---,0.00,VWS V14.01,2013-11-03 15:50:00,
2013-11-03 10:55:00,39.1,33.8,30.13,ESE,123,2.0,6.0,81,0.00,,---,0.00,VWS V14.01,2013-11-03 15:55:00,
2013-11-03 11:00:00,39.1,33.8,30.14,East,87,0.0,6.0,81,0.00,,---,0.00,VWS V14.01,2013-11-03 16:00:00,
2013-11-03 11:05:00,39.1,33.8,30.14,East,98,1.0,6.0,81,0.00,,---,0.00,VWS V14.01,2013-11-03 16:05:00,
2013-11-03 11:10:00,39.0,34.0,30.13,NE,35,1.0,3.0,82,0.00,,---,0.00,VWS V14.01,2013-11-03 16:10:00,
2013-11-03 11:15:00,39.1,34.1,30.13,NE,35,4.0,5.0,82,0.00,,---,0.00,VWS V14.01,2013-11-03 16:15:00,
2013-11-03 11:20:00,39.2,33.9,30.13,NNW,339,1.0,5.0,81,0.00,,---,0.00,VWS V14.01,2013-11-03 16:20:00,
2013-11-03 11:25:00,39.5,33.5,30.13,WNW,299,1.0,6.0,79,0.00,,---,0.00,VWS V14.01,2013-11-03 16:25:00,
2013-11-03 11:30:00,39.8,34.1,30.13,North,7,0.0,2.0,80,0.00,,---,0.00,VWS V14.01,2013-11-03 16:30:00,
2013-11-03 11:35:00,40.2,33.6,30.13,ENE,73,3.0,4.0,77,0.00,,---,0.00,VWS V14.01,2013-11-03 16:35:00,
2013-11-03 11:40:00,40.6,33.6,30.13,West,262,2.0,5.0,76,0.00,,---,0.00,VWS V14.01,2013-11-03 16:40:00,
2013-11-03 11:45:00,40.9,33.3,30.13,SW,226,0.0,3.0,74,0.00,,---,0.00,VWS V14.01,2013-11-03 16:45:00,
2013-11-03 11:50:00,41.4,33.1,30.13,WNW,283,3.0,5.0,72,0.00,,---,0.00,VWS V14.01,2013-11-03 16:50:00,
2013-11-03 11:55:00,41.7,32.7,30.13,WNW,296,1.0,6.0,70,0.00,,---,0.00,VWS V14.01,2013-11-03 16:55:00,
2013-11-03 12:00:00,41.8,32.0,30.13,NNE,30,0.0,4.0,68,0.00,,---,0.00,VWS V14.01,2013-11-03 17:00:00,
2013-11-03 12:05:00,42.0,31.9,30.13,NNW,332,0.0,6.0,67,0.00,,---,0.00,VWS V14.01,2013-11-03 17:05:00,
2013-11-03 12:10:00,42.1,31.6,30.13,WNW,303,0.0,5.0,66,0.00,,---,0.00,VWS V14.01,2013-11-03 17:10:00,
2013-11-03 12:15:00,42.1,31.2,30.13,North,354,0.0,3.0,65,0.00,,---,0.00,VWS V14.01,2013-11-03 17:15:00,
2013-11-03 12:20:00,42.3,32.1,30.13,ENE,59,1.0,4.0,67,0.00,,---,0.00,VWS V14.01,2013-11-03 17:20:00,
2013-11-03 12:25:00,42.5,32.0,30.13,NW,325,0.0,4.0,66,0.00,,---,0.00,VWS V14.01,2013-11-03 17:25:00,
2013-11-03 12:30:00,42.6,31.7,30.14,ESE,111,2.0,3.0,65,0.00,,---,0.00,VWS V14.01,2013-11-03 17:30:00,
2013-11-03 12:40:00,42.6,32.0,30.14,NW,313,1.0,3.0,66,0.00,,---,0.00,VWS V14.01,2013-11-03 17:40:00,
2013-11-03 12:45:00,42.5,31.2,30.14,NW,322,2.0,5.0,64,0.00,,---,0.00,VWS V14.01,2013-11-03 17:45:00,
2013-11-03 12:50:00,42.3,30.2,30.14,NNW,339,2.0,5.0,62,0.00,,---,0.00,VWS V14.01,2013-11-03 17:50:00,
2013-11-03 12:55:00,42.3,30.6,30.14,WSW,251,1.0,3.0,63,0.00,,---,0.00,VWS V14.01,2013-11-03 17:55:00,
2013-11-03 13:00:00,42.3,30.2,30.14,NW,321,1.0,5.0,62,0.00,,---,0.00,VWS V14.01,2013-11-03 18:00:00,
2013-11-03 13:05:00,42.2,29.7,30.14,NNE,17,0.0,4.0,61,0.00,,---,0.00,VWS V14.01,2013-11-03 18:05:00,
2013-11-03 13:15:00,42.7,30.6,30.14,ESE,119,0.0,2.0,62,0.00,,---,0.00,VWS V14.01,2013-11-03 18:15:00,
2013-11-03 13:20:00,43.1,31.4,30.14,NNE,18,1.0,4.0,63,0.00,,---,0.00,VWS V14.01,2013-11-03 18:20:00,
2013-11-03 13:25:00,43.5,30.1,30.15,ENE,61,2.0,4.0,59,0.00,,---,0.00,VWS V14.01,2013-11-03 18:25:00,
2013-11-03 13:30:00,44.0,31.0,30.15,North,358,1.0,4.0,60,0.00,,---,0.00,VWS V14.01,2013-11-03 18:30:00,
2013-11-03 13:35:00,44.4,31.8,30.15,WSW,258,0.0,5.0,61,0.00,,---,0.00,VWS V14.01,2013-11-03 18:35:00,
2013-11-03 13:40:00,44.8,30.9,30.14,NNW,343,0.0,3.0,58,0.00,,---,0.00,VWS V14.01,2013-11-03 18:40:00,
2013-11-03 13:50:00,44.6,30.8,30.15,NW,304,2.0,5.0,58,0.00,,---,0.00,VWS V14.01,2013-11-03 18:50:00,
2013-11-03 13:55:00,44.7,31.3,30.15,NE,40,0.0,5.0,59,0.00,,---,0.00,VWS V14.01,2013-11-03 18:55:00,
2013-11-03 14:00:00,45.1,32.1,30.15,SW,227,0.0,3.0,60,0.00,,---,0.00,VWS V14.01,2013-11-03 19:00:00,
2013-11-03 14:05:00,45.5,31.2,30.15,WNW,296,0.0,3.0,57,0.00,,---,0.00,VWS V14.01,2013-11-03 19:05:00,
2013-11-03 14:10:00,45.4,29.3,30.15,NNE,15,0.0,5.0,53,0.00,,---,0.00,VWS V14.01,2013-11-03 19:10:00,
2013-11-03 14:15:00,45.3,29.6,30.15,ENE,64,5.0,5.0,54,0.00,,---,0.00,VWS V14.01,2013-11-03 19:15:00,
2013-11-03 14:20:00,45.0,28.9,30.15,West,275,0.0,6.0,53,0.00,,---,0.00,VWS V14.01,2013-11-03 19:20:00,
2013-11-03 14:25:00,44.9,28.8,30.16,NW,305,0.0,7.0,53,0.00,,---,0.00,VWS V14.01,2013-11-03 19:25:00,
2013-11-03 14:30:00,44.6,29.0,30.16,NE,40,1.0,6.0,54,0.00,,---,0.00,VWS V14.01,2013-11-03 19:30:00,
2013-11-03 14:35:00,44.2,28.2,30.16,SSW,200,0.0,4.0,53,0.00,,---,0.00,VWS V14.01,2013-11-03 19:35:00,
2013-11-03 14:40:00,44.1,28.5,30.16,NE,40,1.0,5.0,54,0.00,,---,0.00,VWS V14.01,2013-11-03 19:40:00,
2013-11-03 14:45:00,44.2,28.6,30.16,WSW,258,2.0,2.0,54,0.00,,---,0.00,VWS V14.01,2013-11-03 19:45:00,
2013-11-03 14:50:00,44.1,28.5,30.17,ESE,104,0.0,4.0,54,0.00,,---,0.00,VWS V14.01,2013-11-03 19:50:00,
2013-11-03 14:55:00,43.8,28.2,30.17,West,268,0.0,4.0,54,0.00,,---,0.00,VWS V14.01,2013-11-03 19:55:00,
2013-11-03 15:00:00,43.7,29.5,30.17,NNE,24,0.0,1.0,57,0.00,,---,0.00,VWS V14.01,2013-11-03 20:00:00,
2013-11-03 15:05:00,43.5,28.9,30.17,NNE,19,0.0,7.0,56,0.00,,---,0.00,VWS V14.01,2013-11-03 20:05:00,
2013-11-03 15:10:00,43.5,28.4,30.18,ENE,63,0.0,3.0,55,0.00,,---,0.00,VWS V14.01,2013-11-03 20:10:00,
2013-11-03 15:15:00,43.3,28.2,30.18,WNW,292,3.0,3.0,55,0.00,,---,0.00,VWS V14.01,2013-11-03 20:15:00,
2013-11-03 15:20:00,43.2,28.1,30.18,ESE,104,0.0,3.0,55,0.00,,---,0.00,VWS V14.01,2013-11-03 20:20:00,
2013-11-03 15:25:00,43.1,26.2,30.18,NNW,336,0.0,2.0,51,0.00,,---,0.00,VWS V14.01,2013-11-03 20:25:00,
2013-11-03 15:30:00,43.0,25.2,30.18,WNW,302,3.0,10.0,49,0.00,,---,0.00,VWS V14.01,2013-11-03 20:30:00,
2013-11-03 15:35:00,43.0,23.6,30.19,West,265,3.0,4.0,46,0.00,,---,0.00,VWS V14.01,2013-11-03 20:35:00,
2013-11-03 15:40:00,42.9,24.1,30.19,East,86,0.0,4.0,47,0.00,,---,0.00,VWS V14.01,2013-11-03 20:40:00,
2013-11-03 15:45:00,42.6,23.3,30.20,North,3,0.0,5.0,46,0.00,,---,0.00,VWS V14.01,2013-11-03 20:45:00,
2013-11-03 15:50:00,42.5,21.6,30.20,North,11,1.0,6.0,43,0.00,,---,0.00,VWS V14.01,2013-11-03 20:50:00,
2013-11-03 15:55:00,42.3,22.0,30.21,SE,144,1.0,3.0,44,0.00,,---,0.00,VWS V14.01,2013-11-03 20:55:00,
2013-11-03 16:00:00,42.0,23.2,30.21,SSW,201,3.0,3.0,47,0.00,,---,0.00,VWS V14.01,2013-11-03 21:00:00,
2013-11-03 16:05:00,41.8,22.5,30.21,West,274,0.0,4.0,46,0.00,,---,0.00,VWS V14.01,2013-11-03 21:05:00,
2013-11-03 16:10:00,41.5,21.8,30.21,West,274,1.0,1.0,45,0.00,,---,0.00,VWS V14.01,2013-11-03 21:10:00,
2013-11-03 16:15:00,41.3,21.6,30.21,NW,323,2.0,2.0,45,0.00,,---,0.00,VWS V14.01,2013-11-03 21:15:00,
2013-11-03 16:20:00,41.1,20.9,30.21,NE,44,0.0,2.0,44,0.00,,---,0.00,VWS V14.01,2013-11-03 21:20:00,
2013-11-03 16:30:00,40.6,20.4,30.21,NNW,329,0.0,4.0,44,0.00,,---,0.00,VWS V14.01,2013-11-03 21:30:00,
2013-11-03 16:35:00,40.5,20.3,30.21,NNE,18,1.0,6.0,44,0.00,,---,0.00,VWS V14.01,2013-11-03 21:35:00,
2013-11-03 16:40:00,40.5,19.2,30.22,North,2,0.0,3.0,42,0.00,,---,0.00,VWS V14.01,2013-11-03 21:40:00,
2013-11-03 16:45:00,40.5,19.8,30.22,NNW,345,0.0,4.0,43,0.00,,---,0.00,VWS V14.01,2013-11-03 21:45:00,
2013-11-03 16:50:00,40.5,19.8,30.23,SSE,148,0.0,4.0,43,0.00,,---,0.00,VWS V14.01,2013-11-03 21:50:00,
2013-11-03 16:55:00,40.5,19.8,30.23,NNE,15,0.0,5.0,43,0.00,,---,0.00,VWS V14.01,2013-11-03 21:55:00,
2013-11-03 17:00:00,40.4,19.7,30.24,NNE,21,0.0,3.0,43,0.00,,---,0.00,VWS V14.01,2013-11-03 22:00:00,
2013-11-03 17:05:00,40.3,20.1,30.24,NNE,13,1.0,6.0,44,0.00,,---,0.00,VWS V14.01,2013-11-03 22:05:00,
2013-11-03 17:10:00,40.3,20.1,30.24,NW,313,0.0,4.0,44,0.00,,---,0.00,VWS V14.01,2013-11-03 22:10:00,
2013-11-03 17:15:00,40.1,20.0,30.25,NNE,14,0.0,2.0,44,0.00,,---,0.00,VWS V14.01,2013-11-03 22:15:00,
2013-11-03 17:20:00,40.0,19.9,30.25,NNW,346,0.0,4.0,44,0.00,,---,0.00,VWS V14.01,2013-11-03 22:20:00,
2013-11-03 17:25:00,39.9,19.8,30.25,SW,222,2.0,5.0,44,0.00,,---,0.00,VWS V14.01,2013-11-03 22:25:00,
2013-11-03 17:30:00,39.8,19.7,30.26,WSW,240,0.0,8.0,44,0.00,,---,0.00,VWS V14.01,2013-11-03 22:30:00,
2013-11-03 17:35:00,39.7,20.1,30.26,NE,40,0.0,3.0,45,0.00,,---,0.00,VWS V14.01,2013-11-03 22:35:00,
2013-11-03 17:40:00,39.5,19.9,30.26,East,84,2.0,5.0,45,0.00,,---,0.00,VWS V14.01,2013-11-03 22:40:00,
2013-11-03 17:45:00,39.3,19.2,30.27,SW,219,0.0,4.0,44,0.00,,---,0.00,VWS V14.01,2013-11-03 22:45:00,
2013-11-03 17:50:00,39.2,19.1,30.27,NW,324,0.0,4.0,44,0.00,,---,0.00,VWS V14.01,2013-11-03 22:50:00,
2013-11-03 17:55:00,39.0,19.0,30.27,NW,308,1.0,4.0,44,0.00,,---,0.00,VWS V14.01,2013-11-03 22:55:00,
2013-11-03 18:00:00,38.9,18.9,30.27,NNW,337,0.0,3.0,44,0.00,,---,0.00,VWS V14.01,2013-11-03 23:00:00,
2013-11-03 18:05:00,38.7,19.7,30.28,WNW,303,0.0,2.0,46,0.00,,---,0.00,VWS V14.01,2013-11-03 23:05:00,
2013-11-03 18:10:00,38.5,20.0,30.28,North,7,0.0,5.0,47,0.00,,---,0.00,VWS V14.01,2013-11-03 23:10:00,
2013-11-03 18:15:00,38.3,19.4,30.29,NW,307,0.0,2.0,46,0.00,,---,0.00,VWS V14.01,2013-11-03 23:15:00,
2013-11-03 18:20:00,38.1,19.2,30.29,NNE,30,0.0,3.0,46,0.00,,---,0.00,VWS V14.01,2013-11-03 23:20:00,
2013-11-03 18:30:00,37.7,18.3,30.29,WNW,282,0.0,9.0,45,0.00,,---,0.00,VWS V14.01,2013-11-03 23:30:00,
2013-11-03 18:35:00,37.8,17.9,30.29,NNW,343,0.0,7.0,44,0.00,,---,0.00,VWS V14.01,2013-11-03 23:35:00,
2013-11-03 18:40:00,37.9,17.4,30.29,NW,304,0.0,7.0,43,0.00,,---,0.00,VWS V14.01,2013-11-03 23:40:00,
2013-11-03 18:45:00,37.8,17.9,30.29,WNW,301,0.0,6.0,44,0.00,,---,0.00,VWS V14.01,2013-11-03 23:45:00,
2013-11-03 18:50:00,37.7,17.2,30.30,NNE,21,0.0,5.0,43,0.00,,---,0.00,VWS V14.01,2013-11-03 23:50:00,
2013-11-03 18:55:00,37.6,17.1,30.30,NNW,345,1.0,6.0,43,0.00,,---,0.00,VWS V14.01,2013-11-03 23:55:00,
2013-11-03 19:00:00,37.5,17.6,30.30,SW,232,0.0,6.0,44,0.00,,---,0.00,VWS V14.01,2013-11-04 00:00:00,
2013-11-03 19:05:00,37.1,16.7,30.31,NE,40,0.0,5.0,43,0.00,,---,0.00,VWS V14.01,2013-11-04 00:05:00,
2013-11-03 19:10:00,36.9,16.5,30.31,SSW,192,0.0,2.0,43,0.00,,---,0.00,VWS V14.01,2013-11-04 00:10:00,
2013-11-03 19:15:00,36.8,16.4,30.31,NNE,25,5.0,5.0,43,0.00,,---,0.00,VWS V14.01,2013-11-04 00:15:00,
2013-11-03 19:20:00,36.8,17.0,30.32,WSW,256,0.0,7.0,44,0.00,,---,0.00,VWS V14.01,2013-11-04 00:20:00,
2013-11-03 19:25:00,36.6,16.8,30.32,North,355,0.0,5.0,44,0.00,,---,0.00,VWS V14.01,2013-11-04 00:25:00,
2013-11-03 19:30:00,36.4,16.6,30.32,NNW,346,0.0,4.0,44,0.00,,---,0.00,VWS V14.01,2013-11-04 00:30:00,
2013-11-03 19:35:00,36.3,17.0,30.32,NNW,339,0.0,2.0,45,0.00,,---,0.00,VWS V14.01,2013-11-04 00:35:00,
2013-11-03 19:40:00,36.0,17.2,30.33,NNE,23,0.0,5.0,46,0.00,,---,0.00,VWS V14.01,2013-11-04 00:40:00,
2013-11-03 19:45:00,35.9,17.1,30.33,ESE,107,0.0,1.0,46,0.00,,---,0.00,VWS V14.01,2013-11-04 00:45:00,
2013-11-03 19:50:00,35.7,16.5,30.33,NNE,23,1.0,6.0,45,0.00,,---,0.00,VWS V14.01,2013-11-04 00:50:00,
2013-11-03 20:00:00,36.1,16.3,30.33,North,356,4.0,9.0,44,0.00,,---,0.00,VWS V14.01,2013-11-04 01:00:00,
2013-11-03 20:05:00,36.0,16.7,30.34,East,81,0.0,5.0,45,0.00,,---,0.00,VWS V14.01,2013-11-04 01:05:00,
2013-11-03 20:10:00,35.8,17.1,30.34,NNE,30,3.0,7.0,46,0.00,,---,0.00,VWS V14.01,2013-11-04 01:10:00,
2013-11-03 20:15:00,35.7,17.0,30.34,WNW,290,1.0,5.0,46,0.00,,---,0.00,VWS V14.01,2013-11-04 01:15:00,
2013-11-03 20:20:00,35.6,16.9,30.35,ENE,67,0.0,7.0,46,0.00,,---,0.00,VWS V14.01,2013-11-04 01:20:00,
2013-11-03 20:25:00,35.5,16.8,30.35,NNE,24,1.0,5.0,46,0.00,,---,0.00,VWS V14.01,2013-11-04 01:25:00,
2013-11-03 20:30:00,35.3,17.1,30.35,NW,321,0.0,3.0,47,0.00,,---,0.00,VWS V14.01,2013-11-04 01:30:00,
2013-11-03 20:35:00,35.1,16.9,30.36,North,8,1.0,4.0,47,0.00,,---,0.00,VWS V14.01,2013-11-04 01:35:00,
2013-11-03 20:45:00,34.9,17.2,30.36,North,2,0.0,9.0,48,0.00,,---,0.00,VWS V14.01,2013-11-04 01:45:00,
2013-11-03 20:50:00,34.9,17.2,30.37,SW,235,0.0,5.0,48,0.00,,---,0.00,VWS V14.01,2013-11-04 01:50:00,
2013-11-03 20:55:00,34.9,17.2,30.37,West,272,1.0,5.0,48,0.00,,---,0.00,VWS V14.01,2013-11-04 01:55:00,
2013-11-03 21:00:00,34.8,17.1,30.37,North,354,0.0,5.0,48,0.00,,---,0.00,VWS V14.01,2013-11-04 02:00:00,
2013-11-03 21:05:00,34.7,17.5,30.38,North,354,0.0,1.0,49,0.00,,---,0.00,VWS V14.01,2013-11-04 02:05:00,
2013-11-03 21:10:00,34.5,17.3,30.38,NNW,331,0.0,9.0,49,0.00,,---,0.00,VWS V14.01,2013-11-04 02:10:00,
2013-11-03 21:15:00,34.4,17.2,30.38,NNE,30,1.0,4.0,49,0.00,,---,0.00,VWS V14.01,2013-11-04 02:15:00,
2013-11-03 21:20:00,34.3,17.6,30.38,ENE,64,0.0,4.0,50,0.00,,---,0.00,VWS V14.01,2013-11-04 02:20:00,
2013-11-03 21:25:00,34.2,18.0,30.38,West,271,0.0,5.0,51,0.00,,---,0.00,VWS V14.01,2013-11-04 02:25:00,
2013-11-03 21:30:00,34.0,17.8,30.39,NW,312,0.0,5.0,51,0.00,,---,0.00,VWS V14.01,2013-11-04 02:30:00,
2013-11-03 21:35:00,33.8,17.6,30.39,NNE,13,0.0,5.0,51,0.00,,---,0.00,VWS V14.01,2013-11-04 02:35:00,
2013-11-03 21:40:00,33.7,18.0,30.39,North,352,0.0,2.0,52,0.00,,---,0.00,VWS V14.01,2013-11-04 02:40:00,
2013-11-03 21:45:00,33.5,17.8,30.40,NNW,341,0.0,4.0,52,0.00,,---,0.00,VWS V14.01,2013-11-04 02:45:00,
2013-11-03 21:50:00,33.4,18.1,30.40,NW,314,0.0,2.0,53,0.00,,---,0.00,VWS V14.01,2013-11-04 02:50:00,
2013-11-03 21:55:00,33.3,17.6,30.40,ENE,65,0.0,4.0,52,0.00,,---,0.00,VWS V14.01,2013-11-04 02:55:00,
2013-11-03 22:00:00,33.2,18.4,30.40,NW,314,0.0,4.0,54,0.00,,---,0.00,VWS V14.01,2013-11-04 03:00:00,
2013-11-03 22:05:00,33.0,18.2,30.41,North,6,0.0,1.0,54,0.00,,---,0.00,VWS V14.01,2013-11-04 03:05:00,
2013-11-03 22:10:00,32.9,17.7,30.40,NNE,15,0.0,3.0,53,0.00,,---,0.00,VWS V14.01,2013-11-04 03:10:00,
2013-11-03 22:15:00,32.7,18.3,30.41,NNE,15,0.0,3.0,55,0.00,,---,0.00,VWS V14.01,2013-11-04 03:15:00,
2013-11-03 22:20:00,32.6,17.8,30.41,North,360,0.0,5.0,54,0.00,,---,0.00,VWS V14.01,2013-11-04 03:20:00,
2013-11-03 22:25:00,32.5,18.6,30.41,North,360,0.0,2.0,56,0.00,,---,0.00,VWS V14.01,2013-11-04 03:25:00,
2013-11-03 22:30:00,32.2,18.3,30.41,NNW,339,0.0,1.0,56,0.00,,---,0.00,VWS V14.01,2013-11-04 03:30:00,
2013-11-03 22:35:00,32.1,18.2,30.41,NNW,339,0.0,1.0,56,0.00,,---,0.00,VWS V14.01,2013-11-04 03:35:00,
2013-11-03 22:40:00,31.9,18.0,30.41,NNE,21,0.0,2.0,56,0.00,,---,0.00,VWS V14.01,2013-11-04 03:40:00,
2013-11-03 22:45:00,31.8,17.9,30.41,ENE,57,0.0,5.0,56,0.00,,---,0.00,VWS V14.01,2013-11-04 03:45:00,
2013-11-03 22:50:00,31.7,18.2,30.41,ENE,68,0.0,2.0,57,0.00,,---,0.00,VWS V14.01,2013-11-04 03:50:00,
2013-11-03 22:55:00,31.6,18.5,30.41,WNW,289,1.0,2.0,58,0.00,,---,0.00,VWS V14.01,2013-11-04 03:55:00,
2013-11-03 23:00:00,31.5,18.0,30.41,NNE,30,0.0,3.0,57,0.00,,---,0.00,VWS V14.01,2013-11-04 04:00:00,
2013-11-03 23:05:00,31.4,18.4,30.42,North,2,0.0,1.0,58,0.00,,---,0.00,VWS V14.01,2013-11-04 04:05:00,
2013-11-03 23:10:00,31.3,18.2,30.42,WNW,290,0.0,3.0,58,0.00,,---,0.00,VWS V14.01,2013-11-04 04:10:00,
2013-11-03 23:15:00,31.2,18.5,30.42,WNW,298,1.0,2.0,59,0.00,,---,0.00,VWS V14.01,2013-11-04 04:15:00,
2013-11-03 23:20:00,31.2,18.2,30.42,NNE,30,2.0,4.0,58,0.00,,---,0.00,VWS V14.01,2013-11-04 04:20:00,
2013-11-03 23:25:00,31.2,18.5,30.42,NNE,17,0.0,4.0,59,0.00,,---,0.00,VWS V14.01,2013-11-04 04:25:00,
2013-11-03 23:35:00,31.0,18.0,30.42,NW,314,0.0,4.0,58,0.00,,---,0.00,VWS V14.01,2013-11-04 04:35:00,
2013-11-03 23:40:00,31.0,18.8,30.43,ENE,57,1.0,3.0,60,0.00,,---,0.00,VWS V14.01,2013-11-04 04:40:00,
2013-11-03 23:45:00,30.9,18.7,30.43,NNE,22,0.0,2.0,60,0.00,,---,0.00,VWS V14.01,2013-11-04 04:45:00,
2013-11-03 23:50:00,30.9,18.3,30.43,ENE,61,0.0,7.0,59,0.00,,---,0.00,VWS V14.01,2013-11-04 04:50:00,
2013-11-03 23:55:00,30.9,18.7,30.43,NW,320,0.0,3.0,60,0.00,,---,0.00,VWS V14.01,2013-11-04 04:55:00,